Somerton, Arizona
Current Conditions -  °F | °C
As of 2:57 AM on Saturday 25 Oct 2014 (Local Time) from KNYL Reporting Station
Broken Clouds Broken Clouds  
Wind Chill: 74°   Ceiling: 12000
Heat Index: 74°   Visibility: 10mi
Dew Point: 47°   Wind: 3mph
Humidity: 38%   Direction: 30°NNE
Pressure: 29.92"   Gusts: NA
Location:  32.6°N, 114.71°W
Report Text: KNYL 250957Z 03003KT 10SM BKN120 23/08 A2992 RMK AO2 SLP130 T02330083
Loading
Personal Weather Stations






























Interactive Weather Map
Tropical Storm Tracking
New forecast layout! Learn more

10-Day Weather Forecast

Advertisements
Track Severe Weather on mobile